Tropical Cyclones
[Index]
Main Index Home Page Stock Weather Photos Extreme Storms Discussion Storm News and Storm Chasing Reports Tropical Cyclones / Hurricanes / Typhoons Weather Data and Links Wild Fires / Bushfires Weather Observation Techniques Weather Picture Catalogue Tornado Pictures and Reports Stock Video Footage and DVDs for sale
Season 2007-2008 Tropical Cyclone NICHOLAS Track Map
Season 2007-2008 Summaries: [BoM-AU] [JTWC-AU] [JTWC-SIO] [JTWC-SPAC] [JTWC-SH]
<<- Previous TC | JTWC 2007-2008 Season | Next TC ->>

click for intensity scale information  Lat/long Grid: Show Hide

 Date Labels: Show Hide

Joint Typhoon Warning Centre Cyclone Data

Name: NICHOLAS

10 Feb 2008 18:00 UTC to 20 Feb 2008 18:00 UTC

    date/time    lat    long     hPa   cat  kts
2008-02-10 18   16.0   122.2    1008         15          
2008-02-11 00   16.0   121.7     997         25          
2008-02-11 06   15.9   121.2     997         25          
2008-02-11 12   15.7   120.9     996         25          
2008-02-11 18   15.5   120.7     996         25          
2008-02-12 00   15.3   120.5     996         25          
2008-02-12 06   15.2   120.4    1000         30          
2008-02-12 12   15.0   120.4    1000         30          
2008-02-12 18   14.8   120.5     996         35          
2008-02-13 00   14.7   120.7     993    1    40          
2008-02-13 06   14.7   121.0     993    1    40          
2008-02-13 12   14.9   121.3     989    1    45          
2008-02-13 18   15.3   121.3     989    1    45          
2008-02-14 00   15.7   121.0     985    1    50          
2008-02-14 06   15.9   120.7     978    2    60          
2008-02-14 06   15.9   120.7     978    2    60          
2008-02-14 12   16.1   120.3     974    2    65          
2008-02-14 12   16.1   120.3     974    2    65          
2008-02-14 12   16.1   120.3     974    2    65          
2008-02-14 18   15.9   119.9     974    2    65          
2008-02-14 18   15.9   119.9     974    2    65          
2008-02-14 18   15.9   119.9     974    2    65          
2008-02-15 00   15.7   119.7     974    2    65          
2008-02-15 00   15.7   119.7     974    2    65          
2008-02-15 00   15.7   119.7     974    2    65          
2008-02-15 06   16.0   119.4     974    2    65          
2008-02-15 06   16.0   119.4     974    2    65          
2008-02-15 06   16.0   119.4     974    2    65          
2008-02-15 12   16.2   118.9     970    2    70          
2008-02-15 12   16.2   118.9     970    2    70          
2008-02-15 12   16.2   118.9     970    2    70          
2008-02-15 18   16.4   118.5     967    3    75          
2008-02-15 18   16.4   118.5     967    3    75          
2008-02-15 18   16.4   118.5     967    3    75          
2008-02-16 00   16.7   118.2     967    3    75          
2008-02-16 00   16.7   118.2     967    3    75          
2008-02-16 00   16.7   118.2     967    3    75          
2008-02-16 06   17.1   117.9     963    3    80          
2008-02-16 06   17.1   117.9     963    3    80          
2008-02-16 06   17.1   117.9     963    3    80          
2008-02-16 12   17.6   117.5     963    3    80          
2008-02-16 12   17.6   117.5     963    3    80          
2008-02-16 12   17.6   117.5     963    3    80          
2008-02-16 18   17.8   116.8     967    3    75          
2008-02-16 18   17.8   116.8     967    3    75          
2008-02-16 18   17.8   116.8     967    3    75          
2008-02-17 00   18.0   116.2     967    3    75          
2008-02-17 00   18.0   116.2     967    3    75          
2008-02-17 00   18.0   116.2     967    3    75          
2008-02-17 06   18.3   115.7     970    2    70          
2008-02-17 06   18.3   115.7     970    2    70          
2008-02-17 06   18.3   115.7     970    2    70          
2008-02-17 12   18.6   115.3     970    2    70          
2008-02-17 12   18.6   115.3     970    2    70          
2008-02-17 12   18.6   115.3     970    2    70          
2008-02-17 18   19.0   114.8     970    2    70          
2008-02-17 18   19.0   114.8     970    2    70          
2008-02-17 18   19.0   114.8     970    2    70          
2008-02-18 00   19.4   114.3     970    2    70          
2008-02-18 00   19.4   114.3     970    2    70          
2008-02-18 00   19.4   114.3     970    2    70          
2008-02-18 06   19.8   113.9     967    3    75          
2008-02-18 06   19.8   113.9     967    3    75          
2008-02-18 06   19.8   113.9     967    3    75          
2008-02-18 12   20.3   113.6     970    2    70          
2008-02-18 12   20.3   113.6     970    2    70          
2008-02-18 12   20.3   113.6     970    2    70          
2008-02-18 18   20.9   113.4     974    2    65          
2008-02-18 18   20.9   113.4     974    2    65          
2008-02-18 18   20.9   113.4     974    2    65          
2008-02-19 00   21.4   113.4     974    2    65          
2008-02-19 00   21.4   113.4     974    2    65          
2008-02-19 06   21.9   113.4     978    2    60          
2008-02-19 06   21.9   113.4     978    2    60          
2008-02-19 12   22.5   113.5     982    2    55          
2008-02-19 12   22.5   113.5     982    2    55          
2008-02-19 18   23.1   113.6     985    1    50          
2008-02-20 00   23.8   113.8     993    1    40          
2008-02-20 06   24.5   114.0     996         35          
2008-02-20 12   25.6   114.5    1000         30          
2008-02-20 18   26.8   115.1    1004         25          
Winds are 1-min average.

Tropical cyclone tracks developed by Michael Bath using data from the Joint Typhoon Warning Centre Best Tracks and Google Maps.


[Australian Severe Weather index] [Copyright Notice] [Email Contacts] [Search This Site] [Privacy Policy]
Document: tropical_cyclone_nicholas.htm Updated: 28 June 2017